sensor_id;sensor_type;location;lat;lon;timestamp;pressure;altitude;pressure_sealevel;temperature;humidity
32873;BME280;19224;52.462;16.898;2023-11-22T00:01:53;101120.63;;;0.74;96.20
32873;BME280;19224;52.462;16.898;2023-11-22T00:04:23;101118.35;;;0.69;96.35
32873;BME280;19224;52.462;16.898;2023-11-22T00:06:54;101119.33;;;0.79;96.02
32873;BME280;19224;52.462;16.898;2023-11-22T00:09:24;101123.20;;;0.65;96.06
32873;BME280;19224;52.462;16.898;2023-11-22T00:11:54;101134.80;;;0.81;95.76
32873;BME280;19224;52.462;16.898;2023-11-22T00:14:24;101138.23;;;0.68;95.93
32873;BME280;19224;52.462;16.898;2023-11-22T00:16:54;101132.89;;;0.65;96.01
32873;BME280;19224;52.462;16.898;2023-11-22T00:19:25;101142.22;;;0.68;95.11
32873;BME280;19224;52.462;16.898;2023-11-22T00:21:55;101148.34;;;0.64;95.50
32873;BME280;19224;52.462;16.898;2023-11-22T00:24:25;101151.86;;;0.60;95.32
32873;BME280;19224;52.462;16.898;2023-11-22T00:26:55;101154.05;;;0.56;95.22
32873;BME280;19224;52.462;16.898;2023-11-22T00:29:25;101149.56;;;0.52;95.44
32873;BME280;19224;52.462;16.898;2023-11-22T00:31:56;101151.70;;;0.43;95.81
32873;BME280;19224;52.462;16.898;2023-11-22T00:34:27;101148.58;;;0.41;95.71
32873;BME280;19224;52.462;16.898;2023-11-22T00:36:57;101154.38;;;0.45;95.81
32873;BME280;19224;52.462;16.898;2023-11-22T00:39:27;101149.86;;;0.36;95.90
32873;BME280;19224;52.462;16.898;2023-11-22T00:41:57;101153.39;;;0.34;95.41
32873;BME280;19224;52.462;16.898;2023-11-22T00:44:27;101162.17;;;0.28;95.60
32873;BME280;19224;52.462;16.898;2023-11-22T00:46:58;101170.13;;;0.33;95.61
32873;BME280;19224;52.462;16.898;2023-11-22T00:49:28;101167.01;;;0.29;95.81
32873;BME280;19224;52.462;16.898;2023-11-22T00:51:59;101177.56;;;0.23;95.85
32873;BME280;19224;52.462;16.898;2023-11-22T00:54:29;101177.48;;;0.17;96.56
32873;BME280;19224;52.462;16.898;2023-11-22T00:56:59;101174.86;;;0.18;96.35
32873;BME280;19224;52.462;16.898;2023-11-22T00:59:30;101180.59;;;0.21;96.30
32873;BME280;19224;52.462;16.898;2023-11-22T01:02:00;101187.62;;;0.16;96.08
32873;BME280;19224;52.462;16.898;2023-11-22T01:04:31;101194.22;;;0.13;96.61
32873;BME280;19224;52.462;16.898;2023-11-22T01:07:03;101200.84;;;0.13;96.93
32873;BME280;19224;52.462;16.898;2023-11-22T01:09:34;101201.70;;;0.13;96.96
32873;BME280;19224;52.462;16.898;2023-11-22T01:12:06;101199.50;;;0.14;96.73
32873;BME280;19224;52.462;16.898;2023-11-22T01:14:38;101198.10;;;0.07;96.66
32873;BME280;19224;52.462;16.898;2023-11-22T01:17:09;101196.30;;;0.03;96.82
32873;BME280;19224;52.462;16.898;2023-11-22T01:19:39;101195.87;;;0.05;97.01
32873;BME280;19224;52.462;16.898;2023-11-22T01:22:09;101205.99;;;0.01;96.90
32873;BME280;19224;52.462;16.898;2023-11-22T01:24:39;101218.38;;;0.05;96.92
32873;BME280;19224;52.462;16.898;2023-11-22T01:27:10;101213.36;;;-0.07;96.88
32873;BME280;19224;52.462;16.898;2023-11-22T01:29:40;101223.05;;;-0.09;96.88
32873;BME280;19224;52.462;16.898;2023-11-22T01:32:10;101226.80;;;-0.26;97.21
32873;BME280;19224;52.462;16.898;2023-11-22T01:34:41;101235.74;;;-0.18;97.11
32873;BME280;19224;52.462;16.898;2023-11-22T01:37:11;101234.42;;;-0.18;97.37
32873;BME280;19224;52.462;16.898;2023-11-22T01:39:42;101233.97;;;-0.17;97.50
32873;BME280;19224;52.462;16.898;2023-11-22T01:42:12;101237.06;;;-0.18;97.16
32873;BME280;19224;52.462;16.898;2023-11-22T01:44:42;101237.42;;;-0.23;97.48
32873;BME280;19224;52.462;16.898;2023-11-22T01:47:13;101236.42;;;-0.32;97.64
32873;BME280;19224;52.462;16.898;2023-11-22T01:49:44;101240.39;;;-0.32;97.86
32873;BME280;19224;52.462;16.898;2023-11-22T01:52:15;101242.68;;;-0.27;97.99
32873;BME280;19224;52.462;16.898;2023-11-22T01:54:47;101252.72;;;-0.34;97.99
32873;BME280;19224;52.462;16.898;2023-11-22T01:57:18;101256.72;;;-0.33;98.40
32873;BME280;19224;52.462;16.898;2023-11-22T01:59:50;101262.47;;;-0.30;98.21
32873;BME280;19224;52.462;16.898;2023-11-22T02:02:21;101255.43;;;-0.28;98.07
32873;BME280;19224;52.462;16.898;2023-11-22T02:04:51;101264.69;;;-0.30;98.00
32873;BME280;19224;52.462;16.898;2023-11-22T02:07:21;101272.62;;;-0.28;98.06
32873;BME280;19224;52.462;16.898;2023-11-22T02:09:53;101277.09;;;-0.27;98.18
32873;BME280;19224;52.462;16.898;2023-11-22T02:12:25;101279.77;;;-0.23;98.02
32873;BME280;19224;52.462;16.898;2023-11-22T02:14:55;101281.58;;;-0.22;98.18
32873;BME280;19224;52.462;16.898;2023-11-22T02:17:25;101283.70;;;-0.26;98.28
32873;BME280;19224;52.462;16.898;2023-11-22T02:20:00;101288.92;;;-0.32;98.43
32873;BME280;19224;52.462;16.898;2023-11-22T02:22:33;101291.60;;;-0.29;98.53
32873;BME280;19224;52.462;16.898;2023-11-22T02:25:04;101287.19;;;-0.30;98.57
32873;BME280;19224;52.462;16.898;2023-11-22T02:27:34;101292.44;;;-0.33;98.81
32873;BME280;19224;52.462;16.898;2023-11-22T02:30:06;101295.63;;;-0.53;99.81
32873;BME280;19224;52.462;16.898;2023-11-22T02:32:38;101299.11;;;-0.56;99.78
32873;BME280;19224;52.462;16.898;2023-11-22T02:35:08;101293.89;;;-0.53;100.00
32873;BME280;19224;52.462;16.898;2023-11-22T02:37:39;101295.59;;;-0.56;100.00
32873;BME280;19224;52.462;16.898;2023-11-22T02:40:19;101294.50;;;-0.69;100.00
32873;BME280;19224;52.462;16.898;2023-11-22T02:42:54;101293.63;;;-0.68;100.00
32873;BME280;19224;52.462;16.898;2023-11-22T02:45:28;101300.62;;;-0.73;100.00
32873;BME280;19224;52.462;16.898;2023-11-22T02:47:59;101310.44;;;-0.66;100.00
32873;BME280;19224;52.462;16.898;2023-11-22T02:50:31;101315.28;;;-0.65;100.00
32873;BME280;19224;52.462;16.898;2023-11-22T02:53:04;101318.83;;;-0.65;100.00
32873;BME280;19224;52.462;16.898;2023-11-22T02:55:34;101321.36;;;-0.71;100.00
32873;BME280;19224;52.462;16.898;2023-11-22T02:58:05;101328.87;;;-0.70;100.00
32873;BME280;19224;52.462;16.898;2023-11-22T03:00:35;101340.08;;;-0.83;100.00
32873;BME280;19224;52.462;16.898;2023-11-22T03:03:06;101340.98;;;-0.83;100.00
32873;BME280;19224;52.462;16.898;2023-11-22T03:05:38;101333.02;;;-0.84;100.00
32873;BME280;19224;52.462;16.898;2023-11-22T03:08:09;101326.86;;;-0.85;100.00
32873;BME280;19224;52.462;16.898;2023-11-22T03:10:42;101324.21;;;-0.85;100.00
32873;BME280;19224;52.462;16.898;2023-11-22T03:13:12;101329.17;;;-0.78;100.00
32873;BME280;19224;52.462;16.898;2023-11-22T03:15:43;101334.87;;;-0.79;100.00
32873;BME280;19224;52.462;16.898;2023-11-22T03:18:13;101325.54;;;-0.83;100.00
32873;BME280;19224;52.462;16.898;2023-11-22T03:20:45;101322.59;;;-0.77;100.00
32873;BME280;19224;52.462;16.898;2023-11-22T03:23:16;101327.47;;;-0.75;100.00
32873;BME280;19224;52.462;16.898;2023-11-22T03:25:46;101329.70;;;-0.73;100.00
32873;BME280;19224;52.462;16.898;2023-11-22T03:28:17;101326.23;;;-0.70;100.00
32873;BME280;19224;52.462;16.898;2023-11-22T03:30:47;101330.98;;;-0.74;100.00
32873;BME280;19224;52.462;16.898;2023-11-22T03:33:18;101331.56;;;-0.67;100.00
32873;BME280;19224;52.462;16.898;2023-11-22T03:35:49;101324.04;;;-0.69;100.00
32873;BME280;19224;52.462;16.898;2023-11-22T03:38:19;101321.36;;;-0.71;100.00
32873;BME280;19224;52.462;16.898;2023-11-22T03:40:49;101315.05;;;-0.79;100.00
32873;BME280;19224;52.462;16.898;2023-11-22T03:43:20;101324.91;;;-0.69;100.00
32873;BME280;19224;52.462;16.898;2023-11-22T03:45:50;101309.95;;;-0.68;100.00
32873;BME280;19224;52.462;16.898;2023-11-22T03:48:21;101316.56;;;-0.68;100.00
32873;BME280;19224;52.462;16.898;2023-11-22T03:50:53;101331.60;;;-0.64;100.00
32873;BME280;19224;52.462;16.898;2023-11-22T03:53:23;101336.02;;;-0.65;100.00
32873;BME280;19224;52.462;16.898;2023-11-22T03:55:54;101338.59;;;-0.68;100.00
32873;BME280;19224;52.462;16.898;2023-11-22T03:58:25;101350.03;;;-0.70;100.00
32873;BME280;19224;52.462;16.898;2023-11-22T04:00:55;101357.92;;;-0.72;100.00
32873;BME280;19224;52.462;16.898;2023-11-22T04:03:27;101363.21;;;-0.72;100.00
32873;BME280;19224;52.462;16.898;2023-11-22T04:05:57;101376.80;;;-0.77;100.00
32873;BME280;19224;52.462;16.898;2023-11-22T04:08:27;101375.40;;;-0.80;100.00
32873;BME280;19224;52.462;16.898;2023-11-22T04:10:59;101386.39;;;-0.82;100.00
32873;BME280;19224;52.462;16.898;2023-11-22T04:13:31;101381.59;;;-0.79;100.00
32873;BME280;19224;52.462;16.898;2023-11-22T04:16:01;101382.01;;;-0.81;100.00
32873;BME280;19224;52.462;16.898;2023-11-22T04:18:31;101384.98;;;-0.86;100.00
32873;BME280;19224;52.462;16.898;2023-11-22T04:21:02;101385.06;;;-0.82;100.00
32873;BME280;19224;52.462;16.898;2023-11-22T04:23:34;101388.58;;;-0.83;100.00
32873;BME280;19224;52.462;16.898;2023-11-22T04:26:05;101404.34;;;-0.89;100.00
32873;BME280;19224;52.462;16.898;2023-11-22T04:28:36;101410.45;;;-0.91;100.00
32873;BME280;19224;52.462;16.898;2023-11-22T04:31:07;101415.25;;;-0.94;100.00
32873;BME280;19224;52.462;16.898;2023-11-22T04:33:39;101414.70;;;-0.99;100.00
32873;BME280;19224;52.462;16.898;2023-11-22T04:36:12;101414.66;;;-1.01;100.00
32873;BME280;19224;52.462;16.898;2023-11-22T04:38:42;101414.55;;;-1.07;100.00
32873;BME280;19224;52.462;16.898;2023-11-22T04:41:12;101417.11;;;-1.11;100.00
32873;BME280;19224;52.462;16.898;2023-11-22T04:43:44;101428.64;;;-1.08;100.00
32873;BME280;19224;52.462;16.898;2023-11-22T04:46:14;101428.64;;;-1.06;100.00
32873;BME280;19224;52.462;16.898;2023-11-22T04:48:44;101445.46;;;-1.03;100.00
32873;BME280;19224;52.462;16.898;2023-11-22T04:51:16;101463.50;;;-1.05;100.00
32873;BME280;19224;52.462;16.898;2023-11-22T04:53:47;101465.80;;;-1.20;100.00
32873;BME280;19224;52.462;16.898;2023-11-22T04:56:17;101478.70;;;-1.14;100.00
32873;BME280;19224;52.462;16.898;2023-11-22T04:58:48;101474.28;;;-1.16;100.00
32873;BME280;19224;52.462;16.898;2023-11-22T05:01:18;101471.24;;;-1.13;100.00
32873;BME280;19224;52.462;16.898;2023-11-22T05:03:48;101480.89;;;-1.15;100.00
32873;BME280;19224;52.462;16.898;2023-11-22T05:06:18;101472.55;;;-1.14;100.00
32873;BME280;19224;52.462;16.898;2023-11-22T05:08:49;101465.55;;;-1.12;100.00
32873;BME280;19224;52.462;16.898;2023-11-22T05:11:20;101468.23;;;-1.11;100.00
32873;BME280;19224;52.462;16.898;2023-11-22T05:13:51;101482.92;;;-1.23;100.00
32873;BME280;19224;52.462;16.898;2023-11-22T05:16:22;101492.22;;;-1.22;100.00
32873;BME280;19224;52.462;16.898;2023-11-22T05:18:52;101495.22;;;-1.25;100.00
32873;BME280;19224;52.462;16.898;2023-11-22T05:21:23;101495.73;;;-1.21;100.00
32873;BME280;19224;52.462;16.898;2023-11-22T05:23:53;101503.75;;;-1.37;100.00
32873;BME280;19224;52.462;16.898;2023-11-22T05:26:23;101509.44;;;-1.39;100.00
32873;BME280;19224;52.462;16.898;2023-11-22T05:28:54;101512.59;;;-1.35;100.00
32873;BME280;19224;52.462;16.898;2023-11-22T05:31:24;101500.59;;;-1.41;100.00
32873;BME280;19224;52.462;16.898;2023-11-22T05:33:55;101500.00;;;-1.28;100.00
32873;BME280;19224;52.462;16.898;2023-11-22T05:36:25;101506.09;;;-1.32;100.00
32873;BME280;19224;52.462;16.898;2023-11-22T05:38:55;101509.09;;;-1.34;100.00
32873;BME280;19224;52.462;16.898;2023-11-22T05:41:29;101495.88;;;-1.35;100.00
32873;BME280;19224;52.462;16.898;2023-11-22T05:44:00;101491.66;;;-1.27;100.00
32873;BME280;19224;52.462;16.898;2023-11-22T05:46:32;101508.42;;;-1.25;100.00
32873;BME280;19224;52.462;16.898;2023-11-22T05:49:02;101510.81;;;-1.36;100.00
32873;BME280;19224;52.462;16.898;2023-11-22T05:51:33;101520.27;;;-1.27;100.00
32873;BME280;19224;52.462;16.898;2023-11-22T05:54:04;101523.92;;;-1.22;100.00
32873;BME280;19224;52.462;16.898;2023-11-22T05:56:35;101518.09;;;-1.26;100.00
32873;BME280;19224;52.462;16.898;2023-11-22T05:59:07;101524.70;;;-1.26;100.00
32873;BME280;19224;52.462;16.898;2023-11-22T06:01:37;101532.27;;;-1.22;100.00
32873;BME280;19224;52.462;16.898;2023-11-22T06:04:07;101527.89;;;-1.22;100.00
32873;BME280;19224;52.462;16.898;2023-11-22T06:06:39;101527.03;;;-1.19;100.00
32873;BME280;19224;52.462;16.898;2023-11-22T06:09:09;101527.03;;;-1.19;100.00
32873;BME280;19224;52.462;16.898;2023-11-22T06:11:41;101536.94;;;-1.29;100.00
32873;BME280;19224;52.462;16.898;2023-11-22T06:14:11;101563.58;;;-1.20;100.00
32873;BME280;19224;52.462;16.898;2023-11-22T06:16:42;101559.84;;;-1.30;100.00
32873;BME280;19224;52.462;16.898;2023-11-22T06:19:12;101551.00;;;-1.32;100.00
32873;BME280;19224;52.462;16.898;2023-11-22T06:21:43;101550.49;;;-1.34;100.00
32873;BME280;19224;52.462;16.898;2023-11-22T06:24:15;101550.20;;;-1.28;100.00
32873;BME280;19224;52.462;16.898;2023-11-22T06:26:45;101550.59;;;-1.30;100.00
32873;BME280;19224;52.462;16.898;2023-11-22T06:29:16;101541.47;;;-1.24;100.00
32873;BME280;19224;52.462;16.898;2023-11-22T06:31:46;101541.00;;;-1.25;100.00
32873;BME280;19224;52.462;16.898;2023-11-22T06:34:16;101551.73;;;-1.19;100.00
32873;BME280;19224;52.462;16.898;2023-11-22T06:36:47;101557.59;;;-1.12;100.00
32873;BME280;19224;52.462;16.898;2023-11-22T06:39:20;101566.02;;;-1.11;100.00
32873;BME280;19224;52.462;16.898;2023-11-22T06:41:51;101561.95;;;-1.14;100.00
32873;BME280;19224;52.462;16.898;2023-11-22T06:44:23;101562.25;;;-1.20;100.00
32873;BME280;19224;52.462;16.898;2023-11-22T06:46:53;101563.83;;;-1.10;100.00
32873;BME280;19224;52.462;16.898;2023-11-22T06:49:23;101566.02;;;-1.11;100.00
32873;BME280;19224;52.462;16.898;2023-11-22T06:51:58;101580.91;;;-1.13;100.00
32873;BME280;19224;52.462;16.898;2023-11-22T06:54:28;101586.75;;;-1.09;100.00
32873;BME280;19224;52.462;16.898;2023-11-22T06:56:58;101579.99;;;-1.15;100.00
32873;BME280;19224;52.462;16.898;2023-11-22T06:59:29;101596.13;;;-1.03;100.00
32873;BME280;19224;52.462;16.898;2023-11-22T07:01:59;101609.03;;;-0.98;100.00
32873;BME280;19224;52.462;16.898;2023-11-22T07:04:29;101611.52;;;-1.04;100.00
32873;BME280;19224;52.462;16.898;2023-11-22T07:07:01;101609.28;;;-1.06;100.00
32873;BME280;19224;52.462;16.898;2023-11-22T07:09:32;101615.48;;;-1.04;100.00
32873;BME280;19224;52.462;16.898;2023-11-22T07:12:03;101634.05;;;-1.01;100.00
32873;BME280;19224;52.462;16.898;2023-11-22T07:14:38;101638.32;;;-0.89;100.00
32873;BME280;19224;52.462;16.898;2023-11-22T07:17:08;101645.11;;;-0.80;100.00
32873;BME280;19224;52.462;16.898;2023-11-22T07:19:39;101655.77;;;-0.77;100.00
32873;BME280;19224;52.462;16.898;2023-11-22T07:22:11;101675.43;;;-0.64;100.00
32873;BME280;19224;52.462;16.898;2023-11-22T07:24:47;101684.18;;;-0.67;100.00
32873;BME280;19224;52.462;16.898;2023-11-22T07:27:19;101678.78;;;-0.53;100.00
32873;BME280;19224;52.462;16.898;2023-11-22T07:29:49;101686.38;;;-0.48;100.00
32873;BME280;19224;52.462;16.898;2023-11-22T07:32:21;101683.88;;;-0.42;100.00
32873;BME280;19224;52.462;16.898;2023-11-22T07:34:51;101689.42;;;-0.30;100.00
32873;BME280;19224;52.462;16.898;2023-11-22T07:37:23;101681.17;;;-0.23;100.00
32873;BME280;19224;52.462;16.898;2023-11-22T07:39:54;101662.28;;;-0.20;100.00
32873;BME280;19224;52.462;16.898;2023-11-22T07:42:24;101643.26;;;-0.22;100.00
32873;BME280;19224;52.462;16.898;2023-11-22T07:44:54;101640.66;;;-0.21;100.00
32873;BME280;19224;52.462;16.898;2023-11-22T07:47:25;101639.28;;;-0.22;100.00
32873;BME280;19224;52.462;16.898;2023-11-22T07:49:55;101633.36;;;-0.09;100.00
32873;BME280;19224;52.462;16.898;2023-11-22T07:52:26;101629.44;;;-0.08;100.00
32873;BME280;19224;52.462;16.898;2023-11-22T07:54:59;101631.66;;;-0.29;100.00
32873;BME280;19224;52.462;16.898;2023-11-22T07:57:29;101626.70;;;-0.12;100.00
32873;BME280;19224;52.462;16.898;2023-11-22T07:59:59;101643.13;;;-0.07;100.00
32873;BME280;19224;52.462;16.898;2023-11-22T08:02:32;101643.76;;;-0.20;100.00
32873;BME280;19224;52.462;16.898;2023-11-22T08:05:02;101645.41;;;-0.02;100.00
32873;BME280;19224;52.462;16.898;2023-11-22T08:07:36;101647.28;;;0.02;100.00
32873;BME280;19224;52.462;16.898;2023-11-22T08:10:11;101641.30;;;0.12;100.00
32873;BME280;19224;52.462;16.898;2023-11-22T08:12:51;101639.56;;;0.14;100.00
32873;BME280;19224;52.462;16.898;2023-11-22T08:15:21;101627.52;;;0.06;100.00
32873;BME280;19224;52.462;16.898;2023-11-22T08:17:51;101614.57;;;0.23;100.00
32873;BME280;19224;52.462;16.898;2023-11-22T08:20:21;101606.63;;;0.24;100.00
32873;BME280;19224;52.462;16.898;2023-11-22T08:22:52;101615.57;;;0.31;100.00
32873;BME280;19224;52.462;16.898;2023-11-22T08:25:23;101614.57;;;0.49;99.80
32873;BME280;19224;52.462;16.898;2023-11-22T08:27:53;101609.19;;;0.44;100.00
32873;BME280;19224;52.462;16.898;2023-11-22T08:30:23;101599.70;;;0.57;99.58
32873;BME280;19224;52.462;16.898;2023-11-22T08:32:54;101605.94;;;0.62;99.18
32873;BME280;19224;52.462;16.898;2023-11-22T08:35:25;101602.87;;;0.64;99.27
32873;BME280;19224;52.462;16.898;2023-11-22T08:37:56;101599.54;;;0.77;98.64
32873;BME280;19224;52.462;16.898;2023-11-22T08:40:30;101595.19;;;0.80;97.85
32873;BME280;19224;52.462;16.898;2023-11-22T08:43:00;101594.94;;;0.93;97.60
32873;BME280;19224;52.462;16.898;2023-11-22T08:45:31;101604.30;;;0.99;97.19
32873;BME280;19224;52.462;16.898;2023-11-22T08:48:02;101614.97;;;1.02;96.48
32873;BME280;19224;52.462;16.898;2023-11-22T08:50:32;101617.17;;;1.02;95.96
32873;BME280;19224;52.462;16.898;2023-11-22T08:53:02;101625.30;;;1.13;95.67
32873;BME280;19224;52.462;16.898;2023-11-22T08:55:34;101628.05;;;1.22;94.88
32873;BME280;19224;52.462;16.898;2023-11-22T08:58:04;101633.84;;;1.23;93.95
32873;BME280;19224;52.462;16.898;2023-11-22T09:00:37;101638.87;;;1.34;94.12
32873;BME280;19224;52.462;16.898;2023-11-22T09:03:08;101641.94;;;1.33;92.76
32873;BME280;19224;52.462;16.898;2023-11-22T09:05:41;101646.59;;;1.51;92.54
32873;BME280;19224;52.462;16.898;2023-11-22T09:08:11;101645.36;;;1.58;91.95
32873;BME280;19224;52.462;16.898;2023-11-22T09:10:45;101645.81;;;1.59;91.33
32873;BME280;19224;52.462;16.898;2023-11-22T09:13:15;101638.39;;;1.66;90.15
32873;BME280;19224;52.462;16.898;2023-11-22T09:15:46;101630.06;;;1.73;89.75
32873;BME280;19224;52.462;16.898;2023-11-22T09:18:16;101630.52;;;1.74;88.54
32873;BME280;19224;52.462;16.898;2023-11-22T09:20:46;101630.16;;;1.79;88.50
32873;BME280;19224;52.462;16.898;2023-11-22T09:23:17;101634.16;;;1.82;88.27
32873;BME280;19224;52.462;16.898;2023-11-22T09:25:47;101637.09;;;1.68;86.13
32873;BME280;19224;52.462;16.898;2023-11-22T09:28:18;101630.09;;;1.76;86.40
32873;BME280;19224;52.462;16.898;2023-11-22T09:30:49;101633.77;;;1.87;86.56
32873;BME280;19224;52.462;16.898;2023-11-22T09:33:20;101642.24;;;1.91;86.18
32873;BME280;19224;52.462;16.898;2023-11-22T09:35:51;101652.55;;;2.02;85.67
32873;BME280;19224;52.462;16.898;2023-11-22T09:38:21;101657.89;;;2.05;84.60
32873;BME280;19224;52.462;16.898;2023-11-22T09:40:52;101655.91;;;1.87;84.64
32873;BME280;19224;52.462;16.898;2023-11-22T09:43:23;101649.06;;;2.09;83.86
32873;BME280;19224;52.462;16.898;2023-11-22T09:45:55;101646.41;;;2.07;82.42
32873;BME280;19224;52.462;16.898;2023-11-22T09:48:26;101647.77;;;2.10;81.98
32873;BME280;19224;52.462;16.898;2023-11-22T09:54:00;101655.20;;;2.03;81.71
32873;BME280;19224;52.462;16.898;2023-11-22T09:56:32;101662.80;;;2.08;81.99
32873;BME280;19224;52.462;16.898;2023-11-22T09:59:04;101666.87;;;2.16;81.41
32873;BME280;19224;52.462;16.898;2023-11-22T10:01:36;101670.42;;;2.18;80.52
32873;BME280;19224;52.462;16.898;2023-11-22T10:04:07;101671.38;;;2.23;80.44
32873;BME280;19224;52.462;16.898;2023-11-22T10:06:37;101674.73;;;2.07;80.84
32873;BME280;19224;52.462;16.898;2023-11-22T10:09:09;101675.77;;;2.21;80.14
32873;BME280;19224;52.462;16.898;2023-11-22T10:11:40;101675.31;;;2.20;79.10
32873;BME280;19224;52.462;16.898;2023-11-22T10:14:22;101669.50;;;2.13;78.89
32873;BME280;19224;52.462;16.898;2023-11-22T10:16:57;101646.04;;;2.14;79.24
32873;BME280;19224;52.462;16.898;2023-11-22T10:19:20;101633.34;;;2.29;79.20
32873;BME280;19224;52.462;16.898;2023-11-22T10:22:03;101637.86;;;2.36;79.45
32873;BME280;19224;52.462;16.898;2023-11-22T10:24:34;101635.23;;;2.42;80.01
32873;BME280;19224;52.462;16.898;2023-11-22T10:27:05;101647.63;;;2.40;80.48
32873;BME280;19224;52.462;16.898;2023-11-22T10:29:36;101629.63;;;2.56;80.05
32873;BME280;19224;52.462;16.898;2023-11-22T10:32:07;101622.61;;;2.66;80.13
32873;BME280;19224;52.462;16.898;2023-11-22T10:34:38;101630.20;;;2.75;79.92
32873;BME280;19224;52.462;16.898;2023-11-22T10:37:10;101630.14;;;2.65;80.31
32873;BME280;19224;52.462;16.898;2023-11-22T10:39:41;101629.23;;;2.63;79.53
32873;BME280;19224;52.462;16.898;2023-11-22T10:42:11;101635.59;;;2.81;78.96
32873;BME280;19224;52.462;16.898;2023-11-22T10:44:43;101650.68;;;2.85;79.19
32873;BME280;19224;52.462;16.898;2023-11-22T10:47:16;101644.53;;;2.89;78.70
32873;BME280;19224;52.462;16.898;2023-11-22T10:49:48;101644.53;;;2.94;78.44
32873;BME280;19224;52.462;16.898;2023-11-22T10:52:20;101651.67;;;2.99;78.03
32873;BME280;19224;52.462;16.898;2023-11-22T10:54:55;101636.58;;;2.98;77.50
32873;BME280;19224;52.462;16.898;2023-11-22T10:57:27;101637.53;;;3.06;77.52
32873;BME280;19224;52.462;16.898;2023-11-22T11:00:03;101632.66;;;3.04;77.29
32873;BME280;19224;52.462;16.898;2023-11-22T11:02:46;101639.78;;;3.10;76.67
32873;BME280;19224;52.462;16.898;2023-11-22T11:05:21;101630.03;;;3.12;77.43
32873;BME280;19224;52.462;16.898;2023-11-22T11:08:12;101631.73;;;3.01;77.31
32873;BME280;19224;52.462;16.898;2023-11-22T11:10:47;101624.22;;;3.03;76.63
32873;BME280;19224;52.462;16.898;2023-11-22T11:13:19;101626.97;;;3.18;75.44
32873;BME280;19224;52.462;16.898;2023-11-22T11:15:51;101639.38;;;3.16;74.95
32873;BME280;19224;52.462;16.898;2023-11-22T11:18:22;101643.80;;;3.11;73.53
32873;BME280;19224;52.462;16.898;2023-11-22T11:20:56;101652.75;;;3.25;73.22
32873;BME280;19224;52.462;16.898;2023-11-22T11:23:28;101649.22;;;3.32;73.00
32873;BME280;19224;52.462;16.898;2023-11-22T11:26:15;101642.12;;;3.31;72.97
32873;BME280;19224;52.462;16.898;2023-11-22T11:28:46;101652.34;;;3.32;72.81
32873;BME280;19224;52.462;16.898;2023-11-22T11:31:20;101653.27;;;3.35;72.23
32873;BME280;19224;52.462;16.898;2023-11-22T11:33:54;101662.16;;;3.40;72.33
32873;BME280;19224;52.462;16.898;2023-11-22T11:36:30;101650.61;;;3.41;72.00
32873;BME280;19224;52.462;16.898;2023-11-22T11:39:07;101630.62;;;3.37;72.73
32873;BME280;19224;52.462;16.898;2023-11-22T11:41:42;101630.25;;;3.46;72.80
32873;BME280;19224;52.462;16.898;2023-11-22T11:44:13;101624.87;;;3.37;72.87
32873;BME280;19224;52.462;16.898;2023-11-22T11:46:44;101611.17;;;3.54;72.04
32873;BME280;19224;52.462;16.898;2023-11-22T11:49:15;101618.28;;;3.55;71.52
32873;BME280;19224;52.462;16.898;2023-11-22T11:51:46;101616.98;;;3.58;72.15
32873;BME280;19224;52.462;16.898;2023-11-22T11:54:17;101617.44;;;3.62;71.88
32873;BME280;19224;52.462;16.898;2023-11-22T11:56:49;101616.14;;;3.71;71.26
32873;BME280;19224;52.462;16.898;2023-11-22T11:59:23;101630.36;;;3.76;70.99
32873;BME280;19224;52.462;16.898;2023-11-22T12:01:55;101616.63;;;3.84;70.51
32873;BME280;19224;52.462;16.898;2023-11-22T12:04:27;101614.84;;;3.82;70.45
32873;BME280;19224;52.462;16.898;2023-11-22T12:06:59;101613.52;;;3.80;70.37
32873;BME280;19224;52.462;16.898;2023-11-22T12:09:29;101608.64;;;3.84;70.49
32873;BME280;19224;52.462;16.898;2023-11-22T12:12:01;101611.74;;;3.79;70.75
32873;BME280;19224;52.462;16.898;2023-11-22T12:14:32;101618.33;;;3.64;70.69
32873;BME280;19224;52.462;16.898;2023-11-22T12:17:04;101615.70;;;3.73;71.23
32873;BME280;19224;52.462;16.898;2023-11-22T12:19:36;101609.08;;;3.82;71.54
32873;BME280;19224;52.462;16.898;2023-11-22T12:22:07;101603.34;;;3.99;71.00
32873;BME280;19224;52.462;16.898;2023-11-22T12:24:37;101601.12;;;3.97;72.10
32873;BME280;19224;52.462;16.898;2023-11-22T12:27:12;101603.33;;;3.92;73.93
32873;BME280;19224;52.462;16.898;2023-11-22T12:29:43;101594.03;;;4.01;74.33
32873;BME280;19224;52.462;16.898;2023-11-22T12:32:14;101590.88;;;3.83;75.53
32873;BME280;19224;52.462;16.898;2023-11-22T12:34:46;101590.02;;;3.90;74.59
32873;BME280;19224;52.462;16.898;2023-11-22T12:37:17;101578.92;;;3.89;74.89
32873;BME280;19224;52.462;16.898;2023-11-22T12:39:49;101573.11;;;3.88;75.58
32873;BME280;19224;52.462;16.898;2023-11-22T12:42:21;101572.69;;;3.96;74.63
32873;BME280;19224;52.462;16.898;2023-11-22T12:44:52;101568.72;;;4.08;73.19
32873;BME280;19224;52.462;16.898;2023-11-22T12:47:33;101565.16;;;4.06;73.19
32873;BME280;19224;52.462;16.898;2023-11-22T12:50:08;101560.73;;;4.32;73.08
32873;BME280;19224;52.462;16.898;2023-11-22T12:52:40;101567.41;;;4.41;70.99
32873;BME280;19224;52.462;16.898;2023-11-22T12:55:10;101570.55;;;4.41;70.60
32873;BME280;19224;52.462;16.898;2023-11-22T12:57:41;101570.53;;;4.60;70.27
32873;BME280;19224;52.462;16.898;2023-11-22T13:00:14;101566.51;;;4.75;68.88
32873;BME280;19224;52.462;16.898;2023-11-22T13:02:44;101562.47;;;4.96;66.97
32873;BME280;19224;52.462;16.898;2023-11-22T13:05:14;101552.69;;;5.01;67.28